Time;durP1;ratioP1;P1;durP2;ratioP2;P2;SDS_P1;SDS_P2;PMS_P1;PMS_P2;Temp;Humidity;BMP_temperature;BMP_pressure;BME280_temperature;BME280_humidity;BME280_pressure;Samples;Min_cycle;Max_cycle;Signal;HPM_P1;HPM_P2
2023/01/26 00:01:10;;;;;;;25.67;12.88;;;;;;;0.83;100.00;101922.66;5005594;28;20205;-69
2023/01/26 00:03:40;;;;;;;25.27;11.75;;;;;;;0.77;100.00;101928.47;5040363;28;20201;-70
2023/01/26 00:06:12;;;;;;;21.05;11.68;;;;;;;0.61;100.00;101922.56;5013517;28;20282;-71
2023/01/26 00:08:42;;;;;;;18.92;9.95;;;;;;;0.60;100.00;101926.16;5014851;28;20300;-70
2023/01/26 00:11:13;;;;;;;22.08;12.63;;;;;;;0.59;100.00;101925.31;5006979;28;20228;-69
2023/01/26 00:13:44;;;;;;;21.48;10.55;;;;;;;0.64;100.00;101911.66;5014870;28;20197;-69
2023/01/26 00:16:15;;;;;;;23.83;11.50;;;;;;;0.50;100.00;101918.00;5004593;28;20265;-69
2023/01/26 00:18:46;;;;;;;28.90;13.27;;;;;;;0.60;100.00;101904.88;5012130;28;20225;-68
2023/01/26 00:21:17;;;;;;;25.98;12.13;;;;;;;0.61;100.00;101906.56;5010938;28;20220;-70
2023/01/26 00:23:46;;;;;;;22.55;12.55;;;;;;;0.51;100.00;101905.53;5009907;28;20495;-69
2023/01/26 00:26:18;;;;;;;23.90;12.02;;;;;;;0.40;100.00;101888.53;5011398;28;20712;-69
2023/01/26 00:28:50;;;;;;;24.05;10.93;;;;;;;0.37;100.00;101896.75;5025863;28;20225;-68
2023/01/26 00:31:21;;;;;;;21.27;11.40;;;;;;;0.39;100.00;101886.81;5003070;28;20198;-69
2023/01/26 00:33:51;;;;;;;28.30;11.68;;;;;;;0.44;100.00;101879.34;5001115;28;20251;-69
2023/01/26 00:36:20;;;;;;;31.70;13.85;;;;;;;0.38;100.00;101874.50;5023753;28;20316;-68
2023/01/26 00:39:01;;;;;;;31.70;12.15;;;;;;;0.22;100.00;101878.38;5016150;28;20730;-68
2023/01/26 00:44:18;;;;;;;25.55;11.27;;;;;;;0.32;100.00;101874.09;5007987;28;20201;-69
2023/01/26 00:46:48;;;;;;;28.77;13.40;;;;;;;0.39;100.00;101878.84;5003416;28;20694;-69
2023/01/26 00:49:17;;;;;;;22.20;11.88;;;;;;;0.43;100.00;101874.16;4995918;28;20268;-68
2023/01/26 00:51:46;;;;;;;26.52;12.70;;;;;;;0.53;100.00;101871.66;5023879;28;20217;-69
2023/01/26 00:54:21;;;;;;;30.02;12.45;;;;;;;0.59;100.00;101871.19;5007797;28;20239;-69
2023/01/26 00:56:51;;;;;;;21.65;12.82;;;;;;;0.67;100.00;101871.50;5010138;28;20243;-69
2023/01/26 00:59:22;;;;;;;21.60;13.00;;;;;;;0.71;100.00;101867.63;5010625;28;20201;-69
2023/01/26 01:01:52;;;;;;;30.90;13.45;;;;;;;0.69;100.00;101867.72;5010882;28;20205;-68
2023/01/26 01:04:21;;;;;;;27.50;13.38;;;;;;;0.46;100.00;101859.75;5019149;28;20199;-69
2023/01/26 01:06:50;;;;;;;27.23;13.70;;;;;;;0.67;100.00;101864.34;5007689;28;20602;-69
2023/01/26 01:09:20;;;;;;;28.75;13.50;;;;;;;0.84;100.00;101860.41;5014574;28;20202;-69
2023/01/26 01:11:50;;;;;;;23.90;14.52;;;;;;;0.86;100.00;101859.34;5013206;28;20224;-68
2023/01/26 01:14:21;;;;;;;32.40;13.82;;;;;;;0.81;100.00;101860.66;5039914;28;20228;-69
2023/01/26 01:16:51;;;;;;;23.20;12.45;;;;;;;0.72;100.00;101861.34;5018237;28;20663;-69
2023/01/26 01:19:21;;;;;;;25.63;12.10;;;;;;;0.57;100.00;101851.81;5015374;28;20194;-68
2023/01/26 01:21:50;;;;;;;32.80;14.30;;;;;;;0.52;100.00;101852.16;5011333;28;20220;-69
2023/01/26 01:24:19;;;;;;;24.65;13.38;;;;;;;0.71;100.00;101854.31;5012247;28;20206;-68
2023/01/26 01:26:49;;;;;;;25.90;12.63;;;;;;;0.61;100.00;101847.97;5006945;28;20264;-68
2023/01/26 01:29:18;;;;;;;27.63;14.07;;;;;;;0.59;100.00;101848.06;5014200;28;20194;-68
2023/01/26 01:31:49;;;;;;;30.30;13.95;;;;;;;0.73;100.00;101839.88;5017395;28;20198;-68
2023/01/26 01:34:18;;;;;;;22.63;13.73;;;;;;;0.74;100.00;101838.06;5035664;28;20628;-68
2023/01/26 01:36:47;;;;;;;33.75;14.13;;;;;;;0.70;100.00;101836.63;5020959;28;20217;-68
2023/01/26 01:39:17;;;;;;;28.85;13.95;;;;;;;0.73;100.00;101829.22;5012634;28;20679;-68
2023/01/26 01:41:46;;;;;;;31.20;14.55;;;;;;;0.76;100.00;101836.16;5034414;28;20193;-69
2023/01/26 01:44:18;;;;;;;24.98;13.68;;;;;;;0.84;100.00;101833.75;5026785;28;20201;-68
2023/01/26 01:46:53;;;;;;;27.83;12.57;;;;;;;1.00;100.00;101839.63;5016047;28;20236;-68
2023/01/26 01:49:26;;;;;;;36.38;14.73;;;;;;;0.96;100.00;101843.50;5024830;28;20621;-69
2023/01/26 01:52:02;;;;;;;31.90;14.05;;;;;;;0.83;100.00;101835.56;5010276;28;20783;-68
2023/01/26 01:54:35;;;;;;;29.67;13.70;;;;;;;0.73;100.00;101828.38;5011822;28;20664;-67
2023/01/26 01:57:14;;;;;;;26.85;12.90;;;;;;;0.98;100.00;101835.34;5014220;28;20300;-69
2023/01/26 01:59:50;;;;;;;33.47;14.32;;;;;;;0.81;100.00;101824.19;5020690;28;20227;-67
2023/01/26 02:02:20;;;;;;;27.70;12.82;;;;;;;0.92;100.00;101820.69;5024607;28;20717;-69
2023/01/26 02:04:50;;;;;;;30.83;14.65;;;;;;;0.97;100.00;101818.50;5013535;28;20206;-69
2023/01/26 02:07:20;;;;;;;27.40;10.77;;;;;;;0.99;100.00;101821.06;5014791;28;20202;-69
2023/01/26 02:12:38;;;;;;;29.35;14.50;;;;;;;0.83;100.00;101814.25;5007665;28;20224;-68
2023/01/26 02:15:09;;;;;;;21.98;12.70;;;;;;;0.66;100.00;101805.84;5011898;28;20642;-69
2023/01/26 02:17:40;;;;;;;22.15;11.88;;;;;;;0.80;100.00;101805.66;5010825;28;20212;-68
2023/01/26 02:20:20;;;;;;;27.33;14.57;;;;;;;0.78;100.00;101803.09;5021709;28;20232;-68
2023/01/26 02:22:59;;;;;;;28.67;13.30;;;;;;;0.73;100.00;101796.41;5020535;28;20193;-69
2023/01/26 02:25:38;;;;;;;30.17;12.75;;;;;;;0.79;100.00;101794.13;5018976;28;20221;-68
2023/01/26 02:28:09;;;;;;;26.50;15.07;;;;;;;0.74;100.00;101787.47;5006374;28;20194;-69
2023/01/26 02:30:39;;;;;;;28.92;14.52;;;;;;;0.86;100.00;101791.88;5017734;28;20197;-69
2023/01/26 02:33:14;;;;;;;35.67;16.25;;;;;;;0.88;100.00;101781.91;5015931;28;20688;-68
2023/01/26 02:35:43;;;;;;;23.85;12.07;;;;;;;0.68;100.00;101785.25;5015808;28;20209;-70
2023/01/26 02:38:13;;;;;;;28.25;14.43;;;;;;;0.66;100.00;101765.88;5015656;28;20304;-68
2023/01/26 02:40:50;;;;;;;25.25;14.32;;;;;;;0.58;100.00;101773.63;5012644;28;20216;-69
2023/01/26 02:43:20;;;;;;;25.92;11.93;;;;;;;0.67;100.00;101779.09;5032824;28;20201;-69
2023/01/26 02:45:50;;;;;;;33.88;14.90;;;;;;;0.55;100.00;101765.84;5017510;28;20719;-68
2023/01/26 02:49:45;;;;;;;21.75;12.43;;;;;;;0.55;100.00;101763.19;5005433;28;20197;-68
2023/01/26 02:51:08;;;;;;;30.42;14.07;;;;;;;0.33;100.00;101764.81;5018627;28;20197;-69
2023/01/26 02:53:37;;;;;;;25.73;13.45;;;;;;;0.35;100.00;101762.03;5014383;28;20575;-70
2023/01/26 02:56:05;;;;;;;32.80;14.38;;;;;;;0.42;100.00;101758.81;5028529;28;20225;-69
2023/01/26 02:58:36;;;;;;;29.48;13.70;;;;;;;0.56;100.00;101756.91;5015890;28;20259;-67
2023/01/26 03:01:05;;;;;;;28.65;14.48;;;;;;;0.62;100.00;101759.97;5016001;28;20580;-70
2023/01/26 03:03:44;;;;;;;24.25;12.43;;;;;;;0.44;100.00;101756.84;5021320;28;20200;-70
2023/01/26 03:06:15;;;;;;;27.30;14.90;;;;;;;0.34;100.00;101755.00;5011924;28;20217;-68
2023/01/26 03:08:45;;;;;;;29.17;14.55;;;;;;;0.50;100.00;101760.88;5019169;28;20205;-69
2023/01/26 03:11:14;;;;;;;29.60;16.42;;;;;;;0.41;100.00;101764.22;5028698;28;20271;-70
2023/01/26 03:13:44;;;;;;;25.35;13.82;;;;;;;0.58;100.00;101761.13;5010204;28;20205;-69
2023/01/26 03:16:17;;;;;;;29.25;15.15;;;;;;;0.52;100.00;101763.44;5035277;28;20308;-68
2023/01/26 03:27:27;;;;;;;25.38;13.48;;;;;;;0.54;100.00;101750.81;5011447;28;20217;-69
2023/01/26 03:30:04;;;;;;;18.83;10.45;;;;;;;0.53;100.00;101751.81;5020391;28;20679;-68
2023/01/26 03:32:33;;;;;;;19.23;11.93;;;;;;;0.53;100.00;101754.47;5012964;28;20289;-68
2023/01/26 03:35:08;;;;;;;19.92;10.75;;;;;;;0.77;99.95;101749.94;5022994;28;20201;-70
2023/01/26 03:37:42;;;;;;;22.30;13.20;;;;;;;0.73;99.70;101743.13;5013862;28;20256;-68
2023/01/26 03:57:03;;;;;;;20.08;11.88;;;;;;;0.60;97.73;101756.53;5023006;28;20283;-67
2023/01/26 03:59:41;;;;;;;15.65;9.48;;;;;;;0.59;98.26;101754.00;5006127;28;20672;-68
2023/01/26 04:08:22;;;;;;;18.50;10.07;;;;;;;0.41;99.34;101751.78;5015149;28;20293;-69
2023/01/26 04:10:57;;;;;;;19.42;10.75;;;;;;;0.55;99.70;101752.53;5029707;28;20201;-69
2023/01/26 04:22:00;;;;;;;21.45;11.73;;;;;;;0.81;99.50;101738.06;5023168;28;20213;-68
2023/01/26 04:24:31;;;;;;;17.10;10.95;;;;;;;0.81;98.63;101727.41;5010687;28;20197;-69
2023/01/26 04:27:00;;;;;;;16.50;10.88;;;;;;;0.74;98.94;101735.03;5007041;28;20217;-69
2023/01/26 04:29:35;;;;;;;25.90;12.15;;;;;;;0.76;99.10;101724.25;5013249;28;20219;-68
2023/01/26 04:32:04;;;;;;;18.77;11.48;;;;;;;0.74;98.61;101720.84;5017942;28;20225;-69
2023/01/26 04:34:36;;;;;;;19.33;11.43;;;;;;;0.70;98.38;101724.72;5010981;28;20190;-69
2023/01/26 04:37:12;;;;;;;20.08;11.77;;;;;;;0.71;98.96;101721.94;5018282;28;20228;-68
2023/01/26 04:39:46;;;;;;;21.85;12.38;;;;;;;0.50;98.98;101720.06;5026428;28;20189;-70
2023/01/26 04:42:17;;;;;;;22.20;10.70;;;;;;;0.24;100.00;101714.09;5017425;28;20251;-68
2023/01/26 04:44:46;;;;;;;21.75;11.25;;;;;;;0.35;100.00;101712.28;5029155;28;20574;-71
2023/01/26 04:47:15;;;;;;;21.42;11.18;;;;;;;0.11;100.00;101719.47;5013903;28;20241;-69
2023/01/26 04:49:46;;;;;;;20.38;12.05;;;;;;;0.39;100.00;101720.88;5015039;28;20201;-69
2023/01/26 04:52:17;;;;;;;16.60;9.40;;;;;;;0.50;100.00;101723.59;5013360;28;20255;-68
2023/01/26 04:54:46;;;;;;;20.25;10.90;;;;;;;0.27;100.00;101714.69;5022299;28;20233;-68
2023/01/26 04:57:19;;;;;;;21.40;11.68;;;;;;;0.31;100.00;101713.50;5007274;28;20217;-68
2023/01/26 04:59:50;;;;;;;25.08;10.95;;;;;;;0.40;100.00;101709.28;5007592;28;20189;-69
2023/01/26 05:02:21;;;;;;;23.95;11.70;;;;;;;0.35;100.00;101706.97;5014037;28;20208;-70
2023/01/26 05:04:52;;;;;;;20.50;11.20;;;;;;;0.43;100.00;101707.25;5020648;28;20201;-68
2023/01/26 05:07:22;;;;;;;29.80;14.63;;;;;;;0.47;100.00;101697.19;5015120;28;20245;-69
2023/01/26 05:09:54;;;;;;;22.95;12.10;;;;;;;0.33;100.00;101700.06;5007637;28;20190;-69
2023/01/26 05:12:42;;;;;;;20.00;12.25;;;;;;;0.50;100.00;101696.97;5030003;28;20573;-68
2023/01/26 05:15:43;;;;;;;23.58;9.82;;;;;;;0.50;100.00;101690.78;5028229;28;20220;-70
2023/01/26 05:18:33;;;;;;;21.92;9.77;;;;;;;0.56;99.47;101698.31;5039197;28;20213;-69
2023/01/26 05:21:18;;;;;;;17.70;9.32;;;;;;;0.44;99.20;101710.72;5015830;28;20225;-68
2023/01/26 05:23:50;;;;;;;21.95;12.73;;;;;;;0.42;99.38;101700.22;5021484;28;20590;-69
2023/01/26 05:26:39;;;;;;;23.23;9.85;;;;;;;0.34;99.46;101707.91;5021371;28;20711;-69
2023/01/26 05:29:13;;;;;;;20.90;11.27;;;;;;;0.52;100.00;101696.84;5017783;28;20243;-70
2023/01/26 05:31:42;;;;;;;21.98;9.85;;;;;;;0.58;100.00;101696.38;5017736;28;20567;-69
2023/01/26 05:34:12;;;;;;;22.10;11.13;;;;;;;0.69;99.02;101707.03;5006540;28;20206;-69
2023/01/26 05:36:42;;;;;;;23.15;10.57;;;;;;;0.56;99.28;101700.97;5023601;28;20228;-70
2023/01/26 05:39:11;;;;;;;21.80;12.40;;;;;;;0.52;98.94;101707.50;5021002;28;20646;-70
2023/01/26 05:41:41;;;;;;;21.08;11.55;;;;;;;0.55;99.33;101700.13;5010159;28;20656;-70
2023/01/26 05:44:19;;;;;;;20.77;10.18;;;;;;;0.51;99.12;101706.66;5035906;28;20255;-69
2023/01/26 05:47:00;;;;;;;18.23;9.90;;;;;;;0.16;99.70;101704.00;5024509;28;20224;-69
2023/01/26 05:49:30;;;;;;;18.60;9.40;;;;;;;0.16;100.00;101706.66;5021895;28;20204;-69
2023/01/26 05:52:00;;;;;;;23.83;11.23;;;;;;;0.43;100.00;101706.41;5022360;28;20205;-69
2023/01/26 05:54:30;;;;;;;19.42;11.00;;;;;;;0.44;99.72;101710.72;5018721;28;20236;-69
2023/01/26 05:57:00;;;;;;;18.45;11.05;;;;;;;0.48;99.43;101708.72;5041704;28;20217;-70
2023/01/26 05:59:30;;;;;;;25.08;10.20;;;;;;;0.29;99.57;101712.75;5020492;28;20256;-70
2023/01/26 06:02:00;;;;;;;21.17;11.35;;;;;;;0.56;100.00;101716.94;5013512;28;20225;-69
2023/01/26 06:04:29;;;;;;;21.73;12.00;;;;;;;0.53;99.57;101720.72;5022865;28;20254;-68
2023/01/26 06:07:01;;;;;;;21.73;11.02;;;;;;;0.52;99.33;101720.81;5026418;28;20224;-68
2023/01/26 06:09:38;;;;;;;23.88;10.30;;;;;;;0.50;98.70;101722.75;5017773;28;20196;-68
2023/01/26 06:12:52;;;;;;;18.42;11.10;;;;;;;0.26;99.27;101717.47;5011480;28;20201;-67
2023/01/26 06:15:38;;;;;;;27.00;11.15;;;;;;;0.32;100.00;101717.84;5010300;28;20222;-69
2023/01/26 06:18:07;;;;;;;27.27;12.40;;;;;;;0.42;100.00;101721.53;5019559;28;20201;-71
2023/01/26 06:20:37;;;;;;;16.70;9.95;;;;;;;0.25;99.99;101723.75;5011426;28;20619;-69
2023/01/26 06:23:10;;;;;;;22.10;11.88;;;;;;;0.26;100.00;101722.78;5015120;28;20197;-70
2023/01/26 06:25:40;;;;;;;18.50;10.02;;;;;;;0.38;100.00;101722.72;5013614;28;20224;-69
2023/01/26 06:28:09;;;;;;;24.25;11.68;;;;;;;0.35;100.00;101722.94;5011059;28;20457;-68
2023/01/26 06:30:38;;;;;;;24.45;9.98;;;;;;;0.35;100.00;101720.28;5021890;28;20212;-70
2023/01/26 06:33:12;;;;;;;20.48;9.07;;;;;;;0.46;100.00;101721.28;5019849;28;20197;-69
2023/01/26 06:35:41;;;;;;;21.88;9.00;;;;;;;0.43;99.89;101714.38;5020277;28;20283;-69
2023/01/26 06:38:14;;;;;;;16.45;9.07;;;;;;;0.31;100.00;101717.97;5017988;28;20673;-67
2023/01/26 06:40:43;;;;;;;16.90;8.88;;;;;;;0.25;100.00;101719.28;5031294;28;20268;-68
2023/01/26 06:43:12;;;;;;;20.42;9.43;;;;;;;0.23;100.00;101715.91;5017141;28;20198;-69
2023/01/26 06:45:41;;;;;;;21.98;9.77;;;;;;;0.29;100.00;101719.91;5019931;28;20217;-70
2023/01/26 06:48:11;;;;;;;16.73;8.75;;;;;;;0.06;100.00;101713.63;5017169;28;20216;-70
2023/01/26 06:50:40;;;;;;;20.90;11.98;;;;;;;0.14;100.00;101723.72;5012174;28;20194;-70
2023/01/26 06:53:29;;;;;;;17.08;9.48;;;;;;;0.19;100.00;101719.75;5016571;28;20197;-69
2023/01/26 06:56:21;;;;;;;20.70;9.85;;;;;;;0.13;100.00;101725.53;5034417;28;20213;-71
2023/01/26 06:59:11;;;;;;;17.70;10.73;;;;;;;0.08;100.00;101721.50;5037102;28;20248;-70
2023/01/26 07:02:18;;;;;;;20.45;9.80;;;;;;;0.11;100.00;101715.94;5022591;28;20205;-70
2023/01/26 07:04:48;;;;;;;16.85;6.45;;;;;;;0.12;100.00;101715.84;5013677;28;20212;-70
2023/01/26 07:07:17;;;;;;;12.57;7.57;;;;;;;0.08;100.00;101713.53;5033311;28;20240;-69
2023/01/26 07:09:48;;;;;;;22.50;8.70;;;;;;;0.03;100.00;101718.34;5028555;28;20262;-69
2023/01/26 07:12:17;;;;;;;18.45;9.13;;;;;;;0.10;100.00;101709.78;5014737;28;20325;-68
2023/01/26 07:14:46;;;;;;;14.57;7.13;;;;;;;0.11;99.74;101722.13;5015771;28;20198;-70
2023/01/26 07:17:15;;;;;;;12.52;7.82;;;;;;;-0.12;99.91;101717.66;5022446;28;20246;-69
2023/01/26 07:19:44;;;;;;;18.02;8.27;;;;;;;0.07;100.00;101715.34;5021282;28;20631;-71
2023/01/26 07:22:21;;;;;;;19.23;9.80;;;;;;;0.07;100.00;101718.00;5027089;28;20215;-71
2023/01/26 07:24:53;;;;;;;24.40;9.15;;;;;;;0.08;99.57;101722.38;5012782;28;20292;-70
2023/01/26 07:28:14;;;;;;;19.60;9.13;;;;;;;0.09;99.87;101728.53;5015743;28;20599;-68
2023/01/26 07:30:43;;;;;;;18.50;9.35;;;;;;;0.11;99.50;101726.59;5021105;28;20197;-71
2023/01/26 07:33:12;;;;;;;13.93;7.35;;;;;;;0.21;98.26;101724.94;5017609;28;20202;-70
2023/01/26 07:35:41;;;;;;;16.45;9.15;;;;;;;0.18;97.70;101723.38;5010459;28;20283;-71
2023/01/26 07:38:37;;;;;;;19.70;9.10;;;;;;;0.16;97.80;101724.44;5023707;28;20228;-70
2023/01/26 07:41:10;;;;;;;12.38;8.10;;;;;;;0.13;98.50;101725.53;5029992;28;20192;-69
2023/01/26 07:43:40;;;;;;;14.80;8.88;;;;;;;0.29;98.45;101731.38;5005164;28;20194;-69
2023/01/26 07:46:10;;;;;;;13.75;8.20;;;;;;;0.14;98.02;101732.56;5008408;28;20283;-75
2023/01/26 07:48:40;;;;;;;14.73;7.40;;;;;;;0.15;96.80;101725.41;5028647;28;20185;-77
2023/01/26 07:51:09;;;;;;;20.67;9.75;;;;;;;0.19;96.50;101717.09;5015189;28;20671;-76
2023/01/26 07:53:41;;;;;;;11.40;7.45;;;;;;;0.11;96.69;101727.44;5011116;28;20243;-76
2023/01/26 07:56:14;;;;;;;14.50;7.70;;;;;;;0.09;96.97;101724.06;5003580;28;20257;-75
2023/01/26 07:58:43;;;;;;;20.27;9.60;;;;;;;0.09;96.55;101728.53;4998336;28;20222;-74
2023/01/26 08:01:14;;;;;;;20.20;10.50;;;;;;;0.07;97.13;101739.28;5026766;28;20714;-73
2023/01/26 08:03:44;;;;;;;19.27;8.48;;;;;;;-0.05;97.86;101748.19;5006749;28;20198;-74
2023/01/26 08:06:15;;;;;;;19.23;8.75;;;;;;;-0.09;97.81;101736.06;5009669;28;20232;-73
2023/01/26 08:08:45;;;;;;;22.35;10.13;;;;;;;-0.05;98.29;101742.88;5029446;28;20208;-69
2023/01/26 08:11:15;;;;;;;14.27;8.95;;;;;;;-0.22;97.74;101740.59;5004307;28;20206;-69
2023/01/26 08:13:44;;;;;;;18.00;10.43;;;;;;;-0.23;98.68;101739.75;5004298;28;20204;-69
2023/01/26 08:16:13;;;;;;;18.23;9.65;;;;;;;-0.35;98.76;101745.13;5011743;28;20253;-69
2023/01/26 08:18:44;;;;;;;21.52;8.10;;;;;;;-0.18;98.24;101739.41;5015158;28;20197;-68
2023/01/26 08:21:16;;;;;;;11.57;7.03;;;;;;;0.05;97.50;101748.38;5033588;28;20197;-68
2023/01/26 08:23:50;;;;;;;17.67;8.07;;;;;;;-0.13;96.80;101739.91;5013825;28;20193;-69
2023/01/26 08:26:21;;;;;;;13.00;8.10;;;;;;;-0.12;97.78;101741.63;5011473;28;20289;-69
2023/01/26 08:28:50;;;;;;;12.77;7.10;;;;;;;-0.16;97.25;101756.13;5010524;28;20205;-69
2023/01/26 08:31:21;;;;;;;11.88;6.45;;;;;;;-0.32;97.93;101750.19;5015939;28;20739;-70
2023/01/26 08:33:53;;;;;;;31.67;21.60;;;;;;;-0.33;98.47;101745.84;5010317;28;20216;-68
2023/01/26 08:36:23;;;;;;;16.48;7.88;;;;;;;-0.38;98.53;101745.31;5007724;28;20793;-70
2023/01/26 08:38:52;;;;;;;12.75;6.90;;;;;;;-0.39;99.28;101739.19;5028877;28;20228;-68
2023/01/26 08:41:22;;;;;;;16.52;9.27;;;;;;;-0.22;98.74;101740.59;5036569;28;20555;-68
2023/01/26 08:43:52;;;;;;;14.25;9.10;;;;;;;-0.24;97.82;101734.56;5011242;28;20211;-69
2023/01/26 08:46:21;;;;;;;17.77;9.13;;;;;;;-0.14;97.91;101733.75;5033516;28;20217;-70
2023/01/26 08:48:50;;;;;;;16.00;9.27;;;;;;;-0.22;96.94;101735.28;5000121;28;20202;-69
2023/01/26 08:51:19;;;;;;;9.90;7.65;;;;;;;-0.27;96.79;101734.75;5000953;28;20194;-70
2023/01/26 08:53:48;;;;;;;9.82;6.72;;;;;;;-0.23;97.03;101736.22;5030683;28;20275;-70
2023/01/26 08:56:17;;;;;;;8.30;6.05;;;;;;;-0.47;96.26;101737.06;5024490;28;20236;-68
2023/01/26 08:58:49;;;;;;;8.85;6.32;;;;;;;-0.34;96.83;101745.00;5019230;28;20209;-69
2023/01/26 09:01:18;;;;;;;9.77;7.70;;;;;;;-0.11;96.18;101738.00;5010980;28;20217;-69
2023/01/26 09:03:50;;;;;;;12.18;7.25;;;;;;;-0.13;94.72;101739.91;5030645;28;20706;-69
2023/01/26 09:06:19;;;;;;;13.85;7.68;;;;;;;-0.06;95.30;101741.16;5030331;28;20726;-68
2023/01/26 09:08:48;;;;;;;16.73;8.77;;;;;;;-0.05;94.36;101748.19;5017708;28;20304;-70
2023/01/26 09:11:17;;;;;;;10.55;6.95;;;;;;;-0.28;94.29;101747.19;5027007;28;20197;-69
2023/01/26 09:13:55;;;;;;;13.30;7.93;;;;;;;-0.43;95.43;101751.81;5006234;28;20229;-68
2023/01/26 09:16:25;;;;;;;17.88;9.00;;;;;;;-0.28;95.76;101751.66;5006458;28;20218;-69
2023/01/26 09:18:54;;;;;;;14.80;9.05;;;;;;;-0.33;96.25;101754.66;5014852;28;20204;-69
2023/01/26 09:21:23;;;;;;;15.90;8.02;;;;;;;-0.30;96.20;101761.59;5023583;28;20201;-70
2023/01/26 09:23:53;;;;;;;19.92;9.73;;;;;;;-0.16;96.47;101751.63;5015463;28;20221;-68
2023/01/26 09:26:22;;;;;;;12.73;8.98;;;;;;;0.02;95.50;101761.88;5005593;28;20688;-68
2023/01/26 09:28:53;;;;;;;16.15;9.70;;;;;;;0.06;95.33;101761.53;5015992;28;20228;-69
2023/01/26 09:31:22;;;;;;;12.52;8.15;;;;;;;-0.06;94.90;101765.13;5018028;28;20216;-68
2023/01/26 09:33:52;;;;;;;20.13;8.77;;;;;;;-0.34;96.47;101763.63;5035798;28;20240;-69
2023/01/26 09:36:21;;;;;;;15.30;8.88;;;;;;;-0.56;97.39;101750.16;5015013;28;20279;-68
2023/01/26 09:38:52;;;;;;;10.77;7.82;;;;;;;-0.28;97.79;101741.03;5003781;28;20237;-70
2023/01/26 09:41:44;;;;;;;14.70;10.00;;;;;;;-0.24;97.63;101753.16;5029363;28;20708;-69
2023/01/26 09:44:19;;;;;;;23.25;11.70;;;;;;;-0.26;97.48;101745.28;5013258;28;20217;-68
2023/01/26 09:47:02;;;;;;;20.63;10.07;;;;;;;-0.12;97.36;101749.59;5001489;28;20241;-68
2023/01/26 09:49:46;;;;;;;17.38;7.93;;;;;;;-0.12;96.86;101746.94;5003689;28;20667;-69
2023/01/26 09:52:23;;;;;;;16.35;9.15;;;;;;;-0.02;97.33;101747.97;5026094;28;20757;-68
2023/01/26 09:54:54;;;;;;;15.30;9.45;;;;;;;0.00;96.72;101748.72;5010670;28;20228;-67
2023/01/26 09:57:29;;;;;;;13.88;6.60;;;;;;;-0.33;97.21;101751.16;5035688;28;20259;-67
2023/01/26 10:00:07;;;;;;;13.93;8.15;;;;;;;-0.26;98.50;101758.59;5017484;28;20697;-69
2023/01/26 10:02:50;;;;;;;23.50;14.48;;;;;;;-0.18;97.76;101763.34;5019131;28;20185;-69
2023/01/26 10:05:25;;;;;;;20.13;10.98;;;;;;;0.06;97.48;101753.56;5022047;28;20617;-69
2023/01/26 10:07:54;;;;;;;20.10;9.10;;;;;;;0.00;97.41;101746.88;5021354;28;20224;-69
2023/01/26 10:10:29;;;;;;;13.90;9.18;;;;;;;-0.15;97.53;101748.03;5028529;28;20190;-70
2023/01/26 10:12:59;;;;;;;16.50;10.80;;;;;;;-0.05;97.92;101740.22;5010016;28;20209;-70
2023/01/26 10:15:37;;;;;;;25.50;12.65;;;;;;;0.00;97.62;101733.56;5026861;28;20284;-70
2023/01/26 10:18:16;;;;;;;19.75;9.95;;;;;;;0.02;98.12;101740.59;5048450;28;20228;-72
2023/01/26 10:20:50;;;;;;;12.35;8.50;;;;;;;0.14;97.72;101727.25;5042814;28;20244;-70
2023/01/26 10:23:23;;;;;;;17.13;10.20;;;;;;;0.22;96.87;101729.31;5036951;28;20189;-70
2023/01/26 10:25:53;;;;;;;19.73;9.82;;;;;;;0.03;97.37;101729.84;5024838;28;20277;-70
2023/01/26 10:28:27;;;;;;;18.20;8.95;;;;;;;-0.04;98.22;101728.59;5030666;28;20269;-69
2023/01/26 10:30:58;;;;;;;20.73;11.25;;;;;;;-0.17;98.65;101720.66;5025172;28;20197;-70
2023/01/26 10:33:31;;;;;;;15.27;7.82;;;;;;;-0.02;98.61;101716.03;5009608;28;20205;-68
2023/01/26 10:36:01;;;;;;;14.93;8.57;;;;;;;-0.22;98.61;101708.66;5007027;28;20222;-70
2023/01/26 10:38:41;;;;;;;15.10;8.60;;;;;;;-0.08;98.89;101700.50;5016165;28;20255;-69
2023/01/26 10:41:25;;;;;;;17.40;9.98;;;;;;;0.02;99.02;101696.22;5017272;28;20594;-67
2023/01/26 10:43:56;;;;;;;19.75;8.95;;;;;;;-0.09;98.30;101689.03;5020497;28;20197;-69
2023/01/26 10:46:38;;;;;;;15.02;10.65;;;;;;;-0.16;98.83;101689.59;5020663;28;20232;-75
2023/01/26 10:49:16;;;;;;;15.05;8.43;;;;;;;-0.15;98.50;101675.34;5028493;28;20209;-69
2023/01/26 10:52:04;;;;;;;11.95;7.85;;;;;;;-0.09;98.65;101678.38;5033698;28;20186;-69
2023/01/26 10:54:35;;;;;;;17.00;8.02;;;;;;;-0.01;97.72;101667.19;5023986;28;20226;-73
2023/01/26 10:57:13;;;;;;;20.42;9.40;;;;;;;-0.12;97.21;101672.44;5024213;28;20228;-72
2023/01/26 10:59:48;;;;;;;16.35;9.43;;;;;;;-0.02;97.61;101678.78;5022634;28;20297;-72
2023/01/26 11:02:28;;;;;;;17.88;8.45;;;;;;;0.05;97.21;101681.84;5031785;28;20223;-73
2023/01/26 11:05:31;;;;;;;13.95;8.23;;;;;;;0.22;96.23;101681.41;5029911;28;20209;-71
2023/01/26 11:08:29;;;;;;;10.80;7.93;;;;;;;0.18;94.57;101686.13;5038508;28;20200;-75
2023/01/26 11:11:02;;;;;;;18.35;7.40;;;;;;;0.18;93.68;101679.94;5030373;28;20265;-71
2023/01/26 11:13:34;;;;;;;10.68;6.65;;;;;;;0.26;93.01;101678.38;5044572;28;20181;-71
2023/01/26 11:16:24;;;;;;;12.48;7.15;;;;;;;0.34;93.11;101672.47;5015831;28;20213;-71
2023/01/26 11:19:10;;;;;;;15.60;8.98;;;;;;;0.38;93.09;101677.47;5054714;28;20205;-72
2023/01/26 11:21:52;;;;;;;12.75;8.20;;;;;;;0.65;93.01;101674.47;5035606;28;20213;-72
2023/01/26 11:24:35;;;;;;;16.77;8.35;;;;;;;0.76;90.58;101673.63;5040836;28;20201;-71
2023/01/26 11:27:43;;;;;;;12.98;7.85;;;;;;;0.51;90.76;101671.19;5026434;28;20732;-73
2023/01/26 11:30:38;;;;;;;14.68;6.30;;;;;;;0.41;91.88;101671.03;5043789;28;20200;-70
2023/01/26 11:33:21;;;;;;;12.20;6.97;;;;;;;0.42;92.26;101670.06;5051221;28;20312;-71
2023/01/26 11:36:08;;;;;;;9.30;5.95;;;;;;;0.38;92.53;101661.47;5022289;28;20225;-71
2023/01/26 11:38:42;;;;;;;10.18;5.75;;;;;;;0.51;92.86;101665.84;5001615;28;20198;-72
2023/01/26 11:41:37;;;;;;;11.38;6.65;;;;;;;0.40;91.94;101656.88;5018628;28;20264;-70
2023/01/26 11:44:32;;;;;;;10.63;6.90;;;;;;;0.51;91.01;101663.19;5025058;28;20203;-72
2023/01/26 11:47:22;;;;;;;11.80;6.18;;;;;;;0.27;90.75;101658.78;5020674;28;20221;-72
2023/01/26 11:50:31;;;;;;;8.30;5.90;;;;;;;0.29;90.87;101651.50;5018964;28;20197;-71
2023/01/26 11:53:31;;;;;;;14.10;6.85;;;;;;;0.39;90.57;101644.50;5019265;28;20208;-70
2023/01/26 11:56:26;;;;;;;9.10;5.20;;;;;;;0.64;88.22;101645.28;5018270;28;20587;-72
2023/01/26 11:59:04;;;;;;;9.45;5.97;;;;;;;0.84;85.73;101633.91;5017352;28;20403;-69
2023/01/26 12:01:40;;;;;;;9.55;4.65;;;;;;;0.88;85.96;101638.00;5003442;28;20220;-71
2023/01/26 12:04:20;;;;;;;10.85;5.93;;;;;;;1.03;85.14;101634.13;5032426;28;20189;-73
2023/01/26 12:07:05;;;;;;;7.53;5.45;;;;;;;0.97;85.56;101625.78;5025398;28;20225;-71
2023/01/26 12:09:43;;;;;;;9.63;5.68;;;;;;;0.96;85.63;101622.28;5036481;28;20192;-72
2023/01/26 12:12:20;;;;;;;10.00;5.40;;;;;;;1.20;84.58;101622.97;5035225;28;20197;-72
2023/01/26 12:14:56;;;;;;;9.88;6.40;;;;;;;1.08;84.98;101618.63;5031702;28;20192;-70
2023/01/26 12:17:42;;;;;;;10.15;5.88;;;;;;;1.08;85.21;101618.63;5017478;28;20265;-72
2023/01/26 12:20:29;;;;;;;12.10;7.18;;;;;;;1.12;85.44;101613.88;5018930;28;20224;-71
2023/01/26 12:23:07;;;;;;;8.15;5.72;;;;;;;0.96;84.78;101608.09;5023931;28;20205;-72
2023/01/26 12:25:47;;;;;;;8.40;5.03;;;;;;;0.72;86.51;101603.78;5036702;28;20233;-72
2023/01/26 12:28:23;;;;;;;9.27;5.10;;;;;;;0.73;87.75;101596.59;5011547;28;20263;-72
2023/01/26 12:31:03;;;;;;;10.18;6.40;;;;;;;0.93;86.40;101603.00;5037069;28;20671;-72
2023/01/26 12:33:36;;;;;;;10.98;6.03;;;;;;;0.91;86.62;101595.16;5008493;28;20631;-70
2023/01/26 12:36:24;;;;;;;10.40;6.55;;;;;;;0.83;86.94;101581.56;5035830;28;20229;-71